Time;durP1;ratioP1;P1;durP2;ratioP2;P2;SDS_P1;SDS_P2;PMS_P1;PMS_P2;Temp;Humidity;BMP_temperature;BMP_pressure;BME280_temperature;BME280_humidity;BME280_pressure;Samples;Min_cycle;Max_cycle;Signal;HPM_P1;HPM_P2
2021/10/18 00:01:26;;;;;;;84.77;20.70;;;7.70;99.90;;;;;;5052282;28;20853;-54
2021/10/18 00:03:52;;;;;;;66.32;19.75;;;7.60;99.90;;;;;;5051691;28;20387;-51
2021/10/18 00:06:17;;;;;;;59.30;21.00;;;7.40;99.90;;;;;;5051871;28;20405;-51
2021/10/18 00:08:43;;;;;;;60.95;20.92;;;7.40;99.90;;;;;;5051282;28;20405;-51
2021/10/18 00:11:08;;;;;;;64.43;20.23;;;7.60;99.90;;;;;;5052004;28;20405;-52
2021/10/18 00:13:34;;;;;;;59.17;19.75;;;7.50;99.90;;;;;;5052217;28;20497;-51
2021/10/18 00:16:00;;;;;;;63.80;20.70;;;7.30;99.90;;;;;;5051333;28;20396;-51
2021/10/18 00:18:25;;;;;;;63.70;20.48;;;7.30;99.90;;;;;;5051763;28;20819;-52
2021/10/18 00:20:51;;;;;;;59.13;19.97;;;7.20;99.90;;;;;;5051297;28;20382;-51
2021/10/18 00:23:17;;;;;;;83.72;21.33;;;7.20;99.90;;;;;;5052165;28;20381;-51
2021/10/18 00:25:43;;;;;;;80.70;23.43;;;7.20;99.90;;;;;;5051036;28;20493;-51
2021/10/18 00:28:08;;;;;;;94.05;22.73;;;7.20;99.90;;;;;;5051937;28;20455;-51
2021/10/18 00:30:34;;;;;;;99.78;21.67;;;7.20;99.90;;;;;;5051951;28;20386;-52
2021/10/18 00:33:00;;;;;;;65.93;19.50;;;7.30;99.90;;;;;;5050795;28;20458;-52
2021/10/18 00:35:26;;;;;;;82.38;19.15;;;7.20;99.90;;;;;;5051450;28;20388;-52
2021/10/18 00:37:51;;;;;;;86.27;20.27;;;7.20;99.90;;;;;;5050490;28;20468;-59
2021/10/18 00:40:17;;;;;;;68.40;16.57;;;7.10;99.90;;;;;;5051374;28;20382;-51
2021/10/18 00:42:43;;;;;;;57.17;17.50;;;7.20;99.90;;;;;;5051084;28;20393;-51
2021/10/18 00:45:09;;;;;;;41.67;15.80;;;7.20;99.90;;;;;;5051330;28;20409;-52
2021/10/18 00:47:35;;;;;;;37.00;15.85;;;7.20;99.90;;;;;;5050011;28;20473;-51
2021/10/18 00:50:03;;;;;;;46.22;17.75;;;7.30;99.90;;;;;;5050825;28;20378;-52
2021/10/18 00:52:29;;;;;;;45.05;15.95;;;7.40;99.90;;;;;;5051430;28;20721;-52
2021/10/18 00:54:55;;;;;;;48.60;17.10;;;7.40;99.90;;;;;;5050544;28;20416;-52
2021/10/18 00:57:21;;;;;;;41.20;16.42;;;7.40;99.90;;;;;;5051288;28;20389;-52
2021/10/18 00:59:49;;;;;;;42.42;15.30;;;7.50;99.90;;;;;;5049875;28;20872;-52
2021/10/18 01:02:16;;;;;;;65.10;15.70;;;7.50;99.90;;;;;;5051155;28;20388;-52
2021/10/18 01:04:42;;;;;;;44.38;15.52;;;7.50;99.90;;;;;;5050377;28;21169;-52
2021/10/18 01:07:08;;;;;;;47.10;17.47;;;7.40;99.90;;;;;;5050628;28;20480;-53
2021/10/18 01:09:33;;;;;;;57.88;17.48;;;7.30;99.90;;;;;;5049668;28;20413;-52
2021/10/18 01:11:59;;;;;;;45.73;16.23;;;7.40;99.90;;;;;;5050392;28;20786;-52
2021/10/18 01:14:25;;;;;;;49.30;18.27;;;7.40;99.90;;;;;;5051418;28;20392;-52
2021/10/18 01:16:50;;;;;;;58.90;19.30;;;7.30;99.90;;;;;;5049849;28;20468;-52
2021/10/18 01:19:18;;;;;;;55.53;19.45;;;7.10;99.90;;;;;;5050917;28;20397;-51
2021/10/18 01:21:45;;;;;;;65.90;19.42;;;7.10;99.90;;;;;;5050241;28;20382;-52
2021/10/18 01:24:11;;;;;;;75.75;21.90;;;7.20;99.90;;;;;;5050536;28;20378;-52
2021/10/18 01:26:37;;;;;;;96.53;22.90;;;7.20;99.90;;;;;;5050583;28;20421;-56
2021/10/18 01:29:04;;;;;;;111.00;22.50;;;7.30;99.90;;;;;;5050623;28;20401;-52
2021/10/18 01:31:30;;;;;;;109.25;24.25;;;7.30;99.90;;;;;;5050396;28;20477;-52
2021/10/18 01:33:55;;;;;;;146.57;26.10;;;7.20;99.90;;;;;;5048276;28;20805;-52
2021/10/18 01:36:22;;;;;;;177.77;28.03;;;7.10;99.90;;;;;;5050386;28;20485;-52
2021/10/18 01:38:48;;;;;;;122.43;24.05;;;7.10;99.90;;;;;;5049654;28;20733;-52
2021/10/18 01:41:14;;;;;;;175.23;28.13;;;7.20;99.90;;;;;;5050406;28;20687;-52
2021/10/18 01:43:40;;;;;;;167.90;28.20;;;7.20;99.90;;;;;;5050583;28;20427;-55
2021/10/18 01:46:05;;;;;;;193.65;32.17;;;7.20;99.90;;;;;;5050131;28;20413;-52
2021/10/18 01:48:31;;;;;;;149.05;28.02;;;7.20;99.90;;;;;;5050081;28;20409;-52
2021/10/18 01:50:57;;;;;;;188.33;30.90;;;7.10;99.90;;;;;;5049766;28;21314;-52
2021/10/18 01:53:23;;;;;;;179.20;31.00;;;7.00;99.90;;;;;;5082623;28;20783;-53
2021/10/18 01:55:49;;;;;;;155.45;28.42;;;7.00;99.90;;;;;;5048165;28;20390;-52
2021/10/18 01:58:15;;;;;;;169.13;28.70;;;6.50;99.90;;;;;;5048715;28;20385;-53
2021/10/18 02:00:42;;;;;;;189.60;30.10;;;7.10;99.90;;;;;;5049221;28;20408;-57
2021/10/18 02:03:09;;;;;;;156.48;28.67;;;7.20;99.90;;;;;;5048851;28;20401;-52
2021/10/18 02:05:36;;;;;;;230.77;33.13;;;7.20;99.90;;;;;;5049661;28;20437;-53
2021/10/18 02:08:02;;;;;;;210.25;34.35;;;7.30;99.90;;;;;;5048755;28;20401;-53
2021/10/18 02:10:28;;;;;;;218.93;33.22;;;7.30;99.90;;;;;;5050052;28;20411;-52
2021/10/18 02:12:54;;;;;;;302.37;39.13;;;7.30;99.90;;;;;;5048848;28;20403;-53
2021/10/18 02:15:19;;;;;;;244.38;33.90;;;7.30;99.90;;;;;;5049721;28;20512;-53
2021/10/18 02:17:45;;;;;;;389.03;40.80;;;8.30;99.90;;;;;;5048826;28;20495;-53
2021/10/18 02:20:13;;;;;;;192.90;32.60;;;7.30;99.90;;;;;;5049875;28;20491;-52
2021/10/18 02:22:40;;;;;;;294.30;37.10;;;7.40;99.90;;;;;;5049616;28;20865;-56
2021/10/18 02:25:10;;;;;;;370.80;41.08;;;7.50;99.90;;;;;;5065435;28;20504;-52
2021/10/18 02:27:36;;;;;;;205.15;31.50;;;7.50;99.90;;;;;;5050040;28;20385;-54
2021/10/18 02:30:05;;;;;;;474.43;49.40;;;7.50;99.90;;;;;;5048917;28;21029;-52
2021/10/18 02:32:31;;;;;;;243.50;36.13;;;7.50;99.90;;;;;;5049574;28;20386;-52
2021/10/18 02:34:56;;;;;;;385.08;39.45;;;7.60;99.90;;;;;;5048759;28;20443;-52
2021/10/18 02:37:22;;;;;;;280.43;36.60;;;7.70;99.90;;;;;;5049745;28;20442;-52
2021/10/18 02:39:48;;;;;;;282.75;38.58;;;7.60;99.90;;;;;;5047456;28;20389;-53
2021/10/18 02:42:13;;;;;;;562.80;54.00;;;7.50;99.90;;;;;;5049650;28;20729;-53
2021/10/18 02:44:39;;;;;;;344.20;37.08;;;7.40;99.90;;;;;;5048946;28;20523;-56
2021/10/18 02:47:07;;;;;;;375.67;38.30;;;7.40;99.90;;;;;;5048853;28;20378;-52
2021/10/18 02:49:32;;;;;;;254.93;30.58;;;7.60;99.90;;;;;;5049444;28;20392;-53
2021/10/18 02:51:58;;;;;;;433.20;45.37;;;7.60;99.90;;;;;;5048851;28;20370;-54
2021/10/18 02:54:23;;;;;;;436.20;50.88;;;7.50;99.90;;;;;;5049255;28;20386;-53
2021/10/18 02:56:49;;;;;;;275.43;30.10;;;7.50;99.90;;;;;;5080917;28;20471;-53
2021/10/18 02:59:15;;;;;;;281.98;33.17;;;7.40;99.90;;;;;;5049090;28;20410;-52
2021/10/18 03:01:40;;;;;;;373.00;44.77;;;7.40;99.90;;;;;;5048951;28;20913;-56
2021/10/18 03:04:06;;;;;;;287.77;33.20;;;6.50;99.90;;;;;;5048795;28;20396;-53
2021/10/18 03:06:32;;;;;;;380.87;36.43;;;7.40;99.90;;;;;;5081312;28;20485;-53
2021/10/18 03:08:59;;;;;;;292.75;31.77;;;7.50;99.90;;;;;;5048113;28;20454;-52
2021/10/18 03:11:25;;;;;;;315.10;32.47;;;7.60;99.90;;;;;;5047723;28;20796;-53
2021/10/18 03:13:51;;;;;;;312.33;35.08;;;7.60;99.90;;;;;;5048317;28;20377;-52
2021/10/18 03:16:16;;;;;;;308.10;33.63;;;7.70;99.90;;;;;;5048800;28;20392;-52
2021/10/18 03:18:42;;;;;;;235.45;30.70;;;7.80;99.90;;;;;;5047193;28;20389;-57
2021/10/18 03:21:08;;;;;;;202.50;30.37;;;7.70;99.90;;;;;;5048469;28;20963;-52
2021/10/18 03:23:33;;;;;;;228.45;30.10;;;7.80;99.90;;;;;;5049005;28;20690;-52
2021/10/18 03:25:59;;;;;;;251.23;33.15;;;7.80;99.90;;;;;;5047805;28;20420;-53
2021/10/18 03:28:25;;;;;;;212.00;29.93;;;7.80;99.90;;;;;;5048871;28;20389;-52
2021/10/18 03:30:50;;;;;;;181.15;27.98;;;7.90;99.90;;;;;;5047693;28;20376;-52
2021/10/18 03:33:16;;;;;;;103.43;23.17;;;7.90;99.90;;;;;;5049526;28;20394;-52
2021/10/18 03:35:42;;;;;;;214.30;29.88;;;8.10;99.90;;;;;;5048462;28;20390;-57
2021/10/18 03:38:08;;;;;;;234.20;30.65;;;8.00;99.90;;;;;;5048672;28;20467;-52
2021/10/18 03:40:34;;;;;;;142.98;24.98;;;8.10;99.90;;;;;;5049040;28;20852;-52
2021/10/18 03:43:00;;;;;;;174.27;27.43;;;8.10;99.90;;;;;;5047464;28;21214;-52
2021/10/18 03:45:25;;;;;;;117.60;23.65;;;8.00;99.90;;;;;;5048618;28;20414;-52
2021/10/18 03:47:51;;;;;;;74.83;20.03;;;8.00;99.90;;;;;;5048089;28;20390;-54
2021/10/18 03:50:17;;;;;;;57.83;20.30;;;8.00;99.90;;;;;;5048949;28;20377;-52
2021/10/18 03:52:43;;;;;;;64.83;20.60;;;8.10;99.90;;;;;;5046943;28;20386;-57
2021/10/18 03:55:09;;;;;;;61.83;19.80;;;8.20;99.90;;;;;;5048249;28;20927;-53
2021/10/18 03:57:35;;;;;;;67.07;21.15;;;8.30;99.90;;;;;;5048739;28;20381;-53
2021/10/18 04:00:01;;;;;;;58.65;19.05;;;8.20;99.90;;;;;;5048259;28;21203;-53
2021/10/18 04:02:27;;;;;;;51.97;19.17;;;8.30;99.90;;;;;;5048674;28;20748;-53
2021/10/18 04:04:52;;;;;;;52.67;20.80;;;8.40;99.90;;;;;;5047373;28;20904;-53
2021/10/18 04:07:18;;;;;;;48.80;18.50;;;8.30;99.90;;;;;;5048385;28;20483;-53
2021/10/18 04:09:46;;;;;;;47.63;18.43;;;8.20;99.90;;;;;;5048152;28;20855;-57
2021/10/18 04:12:12;;;;;;;52.22;18.88;;;8.10;99.90;;;;;;5048272;28;20441;-54
2021/10/18 04:14:37;;;;;;;47.25;17.73;;;8.20;99.90;;;;;;5047876;28;20389;-53
2021/10/18 04:17:03;;;;;;;59.90;18.60;;;8.30;99.90;;;;;;5047954;28;20890;-53
2021/10/18 04:19:29;;;;;;;65.45;20.50;;;8.30;99.90;;;;;;5048499;28;20378;-53
2021/10/18 04:21:54;;;;;;;64.20;19.93;;;8.30;99.90;;;;;;5050271;28;20391;-54
2021/10/18 04:24:20;;;;;;;73.05;19.80;;;8.40;99.90;;;;;;5052346;28;20752;-53
2021/10/18 04:26:46;;;;;;;60.43;20.37;;;8.40;99.90;;;;;;5051503;28;20463;-57
2021/10/18 04:29:11;;;;;;;65.60;20.65;;;8.50;99.90;;;;;;5052140;28;20409;-52
2021/10/18 04:31:37;;;;;;;62.27;19.60;;;8.40;99.90;;;;;;5052209;28;20871;-54
2021/10/18 04:34:03;;;;;;;66.18;20.75;;;8.50;99.90;;;;;;5051487;28;20394;-53
2021/10/18 04:36:29;;;;;;;62.77;20.00;;;8.50;99.90;;;;;;5052292;28;20386;-53
2021/10/18 04:38:55;;;;;;;66.38;21.08;;;8.50;99.90;;;;;;5051627;28;20420;-57
2021/10/18 04:41:21;;;;;;;56.80;19.60;;;8.60;99.90;;;;;;5051835;28;20381;-53
2021/10/18 04:43:46;;;;;;;64.80;20.70;;;8.60;99.90;;;;;;5051127;28;20382;-53
2021/10/18 04:46:12;;;;;;;65.13;21.23;;;8.80;99.90;;;;;;5051689;28;20452;-52
2021/10/18 04:48:38;;;;;;;60.00;21.00;;;8.80;99.90;;;;;;5052261;28;20385;-50
2021/10/18 04:51:04;;;;;;;55.75;20.55;;;8.70;99.90;;;;;;5050918;28;20455;-52
2021/10/18 04:53:29;;;;;;;52.67;19.80;;;8.70;99.90;;;;;;5052110;28;20919;-51
2021/10/18 04:55:55;;;;;;;50.47;21.42;;;8.70;99.90;;;;;;5051473;28;20386;-51
2021/10/18 04:58:21;;;;;;;57.60;21.30;;;8.80;99.90;;;;;;5052104;28;20389;-52
2021/10/18 05:00:49;;;;;;;51.83;21.27;;;8.80;99.90;;;;;;5050914;28;20439;-55
2021/10/18 05:03:15;;;;;;;53.25;20.52;;;8.90;99.90;;;;;;5051845;28;20464;-54
2021/10/18 05:05:41;;;;;;;51.70;20.65;;;8.90;99.90;;;;;;5051568;28;20559;-54
2021/10/18 05:08:09;;;;;;;57.97;23.00;;;9.00;99.90;;;;;;5050704;28;20433;-54
2021/10/18 05:10:36;;;;;;;47.57;20.43;;;9.10;99.90;;;;;;5051489;28;20398;-53
2021/10/18 05:13:06;;;;;;;45.97;20.15;;;9.10;99.90;;;;;;5050511;28;20389;-53
2021/10/18 05:15:32;;;;;;;43.15;19.75;;;9.10;99.90;;;;;;5051763;28;20381;-53
2021/10/18 05:18:00;;;;;;;58.93;21.07;;;9.10;99.90;;;;;;5050273;28;20702;-53
2021/10/18 05:20:26;;;;;;;59.43;22.37;;;9.10;99.90;;;;;;5048513;28;20389;-57
2021/10/18 05:22:52;;;;;;;64.90;22.30;;;8.90;99.90;;;;;;5049570;28;20378;-54
2021/10/18 05:25:18;;;;;;;57.07;22.80;;;8.90;99.90;;;;;;5049128;28;20746;-51
2021/10/18 05:27:43;;;;;;;56.47;22.05;;;8.80;99.90;;;;;;5051030;28;20393;-57
2021/10/18 05:30:11;;;;;;;56.10;22.37;;;8.70;99.90;;;;;;5050196;28;20373;-51
2021/10/18 05:32:37;;;;;;;52.85;20.00;;;8.70;99.90;;;;;;5050281;28;20475;-51
2021/10/18 05:35:04;;;;;;;57.23;21.90;;;8.60;99.90;;;;;;5050044;28;20496;-52
2021/10/18 05:37:30;;;;;;;55.33;20.90;;;8.60;99.90;;;;;;5050984;28;20852;-51
2021/10/18 05:39:56;;;;;;;50.20;20.97;;;8.50;99.90;;;;;;5050022;28;20412;-51
2021/10/18 05:42:22;;;;;;;55.95;20.85;;;8.40;99.90;;;;;;5050939;28;20451;-52
2021/10/18 05:44:47;;;;;;;52.28;21.30;;;8.40;99.90;;;;;;5050376;28;20834;-56
2021/10/18 05:47:13;;;;;;;50.23;20.37;;;8.40;99.90;;;;;;5048588;28;20394;-53
2021/10/18 05:49:38;;;;;;;51.23;19.23;;;8.40;99.90;;;;;;5041254;28;20742;-52
2021/10/18 05:52:05;;;;;;;50.30;18.30;;;8.40;99.90;;;;;;5031746;28;20453;-51
2021/10/18 05:54:30;;;;;;;45.85;18.63;;;8.40;99.90;;;;;;5050118;28;20385;-54
2021/10/18 05:56:56;;;;;;;50.72;19.13;;;8.50;99.90;;;;;;5044444;28;20918;-53
2021/10/18 05:59:22;;;;;;;47.77;18.60;;;8.50;99.90;;;;;;5030407;28;20387;-53
2021/10/18 06:01:47;;;;;;;44.03;17.60;;;8.60;99.90;;;;;;5029392;28;20735;-58
2021/10/18 06:04:13;;;;;;;47.47;18.20;;;8.50;99.90;;;;;;5030692;28;20380;-53
2021/10/18 06:06:39;;;;;;;49.42;18.23;;;8.50;99.90;;;;;;5045616;28;20429;-53
2021/10/18 06:09:05;;;;;;;46.30;17.67;;;8.50;99.90;;;;;;5049344;28;20949;-53
2021/10/18 06:11:31;;;;;;;41.67;17.65;;;8.60;99.90;;;;;;5048826;28;20393;-53
2021/10/18 06:13:56;;;;;;;52.55;18.17;;;8.70;99.90;;;;;;5049072;28;20752;-55
2021/10/18 06:16:22;;;;;;;48.47;18.10;;;8.80;99.90;;;;;;5050291;28;20389;-53
2021/10/18 06:18:48;;;;;;;45.67;17.55;;;8.80;99.90;;;;;;5049242;28;20378;-58
2021/10/18 06:21:14;;;;;;;48.77;16.97;;;8.70;99.90;;;;;;5050118;28;20707;-53
2021/10/18 06:23:40;;;;;;;44.17;17.40;;;8.70;99.90;;;;;;5049950;28;20908;-53
2021/10/18 06:26:05;;;;;;;42.25;16.45;;;8.80;99.90;;;;;;5049310;28;20495;-53
2021/10/18 06:28:31;;;;;;;45.43;18.10;;;8.80;99.90;;;;;;5039397;28;20417;-53
2021/10/18 06:30:57;;;;;;;44.07;16.87;;;8.80;99.90;;;;;;5038831;28;20388;-53
2021/10/18 06:33:24;;;;;;;39.15;16.98;;;8.90;99.90;;;;;;5041393;28;20401;-54
2021/10/18 06:35:50;;;;;;;42.42;17.90;;;8.90;99.90;;;;;;5040801;28;20483;-53
2021/10/18 06:38:20;;;;;;;40.25;17.25;;;8.90;99.90;;;;;;5045172;28;20463;-53
2021/10/18 06:40:47;;;;;;;41.05;17.25;;;8.90;99.90;;;;;;5046389;28;20386;-57
2021/10/18 06:43:13;;;;;;;41.72;18.25;;;9.00;99.90;;;;;;5044184;28;20413;-56
2021/10/18 06:45:39;;;;;;;40.08;16.60;;;9.10;99.90;;;;;;5048303;28;20413;-54
2021/10/18 06:48:07;;;;;;;38.95;15.85;;;9.20;99.90;;;;;;5041391;28;20405;-54
2021/10/18 06:50:33;;;;;;;39.40;16.85;;;9.10;99.90;;;;;;5047577;28;20389;-53
2021/10/18 06:52:59;;;;;;;40.38;18.05;;;9.20;99.90;;;;;;5046579;28;20753;-53
2021/10/18 06:55:27;;;;;;;41.13;17.52;;;9.10;99.90;;;;;;5046433;28;20396;-53
2021/10/18 06:57:53;;;;;;;37.08;17.25;;;9.20;99.90;;;;;;5041761;28;20962;-54
2021/10/18 07:00:18;;;;;;;41.20;17.83;;;9.10;99.90;;;;;;5040515;28;20401;-53
2021/10/18 07:02:44;;;;;;;35.97;16.35;;;9.00;99.90;;;;;;5041387;28;20900;-54
2021/10/18 07:05:10;;;;;;;37.27;17.50;;;9.20;99.90;;;;;;5040602;28;20436;-53
2021/10/18 07:07:37;;;;;;;37.28;17.48;;;9.30;99.90;;;;;;5040906;28;20424;-53
2021/10/18 07:10:07;;;;;;;36.10;16.58;;;9.40;99.90;;;;;;5040657;28;20827;-54
2021/10/18 07:12:34;;;;;;;33.45;16.48;;;9.40;99.90;;;;;;5047171;28;20467;-57
2021/10/18 07:15:00;;;;;;;38.65;17.50;;;9.50;99.90;;;;;;5048095;28;20400;-53
2021/10/18 07:17:27;;;;;;;39.83;17.42;;;9.60;99.90;;;;;;5048735;28;20420;-53
2021/10/18 07:19:54;;;;;;;36.58;16.92;;;9.80;99.90;;;;;;5048151;28;20385;-53
2021/10/18 07:22:24;;;;;;;35.80;15.95;;;9.80;99.90;;;;;;5048585;28;20464;-53
2021/10/18 07:24:50;;;;;;;39.92;18.13;;;9.90;99.90;;;;;;5048166;28;20411;-53
2021/10/18 07:27:16;;;;;;;38.55;17.23;;;9.90;99.90;;;;;;5048967;28;20389;-53
2021/10/18 07:29:42;;;;;;;36.17;16.70;;;10.00;99.90;;;;;;5049216;28;20389;-54
2021/10/18 07:32:08;;;;;;;33.80;17.10;;;10.10;99.90;;;;;;5047671;28;20369;-53
2021/10/18 07:34:33;;;;;;;43.38;16.38;;;10.30;99.90;;;;;;5048980;28;20389;-54
2021/10/18 07:37:00;;;;;;;34.80;15.60;;;10.40;99.90;;;;;;5047960;28;20481;-53
2021/10/18 07:39:27;;;;;;;28.95;15.50;;;10.50;99.90;;;;;;5048941;28;20392;-53
2021/10/18 07:41:55;;;;;;;34.58;16.73;;;10.70;99.90;;;;;;5048227;28;20413;-52
2021/10/18 07:44:24;;;;;;;33.35;15.95;;;10.90;99.90;;;;;;5048255;28;20380;-52
2021/10/18 07:46:55;;;;;;;34.55;16.63;;;11.00;99.90;;;;;;5042926;28;20475;-52
2021/10/18 07:49:22;;;;;;;33.60;16.17;;;11.00;99.90;;;;;;5043092;28;20411;-52
2021/10/18 07:51:50;;;;;;;37.35;17.13;;;10.90;99.90;;;;;;5042787;28;20409;-53
2021/10/18 07:54:16;;;;;;;36.50;16.60;;;10.90;99.90;;;;;;5044001;28;20468;-52
2021/10/18 07:56:41;;;;;;;35.80;17.95;;;11.00;99.90;;;;;;5051084;28;20856;-53
2021/10/18 07:59:07;;;;;;;37.03;18.08;;;11.00;99.90;;;;;;5051638;28;20439;-52
2021/10/18 08:01:33;;;;;;;33.17;17.60;;;10.90;99.90;;;;;;5053152;28;20435;-53
2021/10/18 08:03:58;;;;;;;37.42;19.52;;;10.80;99.90;;;;;;5052164;28;20464;-53
2021/10/18 08:06:24;;;;;;;40.37;20.07;;;10.90;99.90;;;;;;5051708;28;20417;-53
2021/10/18 08:08:55;;;;;;;42.40;19.77;;;10.80;99.90;;;;;;5047519;28;20413;-53
2021/10/18 08:11:21;;;;;;;37.95;18.95;;;10.90;99.90;;;;;;5041724;28;20429;-53
2021/10/18 08:13:47;;;;;;;36.47;18.30;;;11.10;99.90;;;;;;5051517;28;20425;-58
2021/10/18 08:16:13;;;;;;;35.72;17.65;;;11.10;99.90;;;;;;5052105;28;20451;-54
2021/10/18 08:18:39;;;;;;;39.67;19.92;;;11.20;99.90;;;;;;5052549;28;20385;-53
2021/10/18 08:21:09;;;;;;;39.83;18.92;;;11.10;99.90;;;;;;5051022;28;21317;-53
2021/10/18 08:23:35;;;;;;;37.78;19.35;;;11.10;99.90;;;;;;5051176;28;20413;-53
2021/10/18 08:26:04;;;;;;;32.77;17.70;;;11.00;99.90;;;;;;5050991;28;20416;-55
2021/10/18 08:28:29;;;;;;;34.38;17.95;;;10.90;99.90;;;;;;5051654;28;20431;-54
2021/10/18 08:30:56;;;;;;;35.10;18.55;;;10.80;99.90;;;;;;5051608;28;20377;-53
2021/10/18 08:33:22;;;;;;;33.65;17.33;;;11.00;99.90;;;;;;5052015;28;20374;-53
2021/10/18 08:35:48;;;;;;;36.13;18.67;;;11.00;99.90;;;;;;5051749;28;21183;-57
2021/10/18 08:41:42;;;;;;;33.33;18.33;;;10.70;99.90;;;;;;5051409;28;20459;-53
2021/10/18 08:46:23;;;;;;;35.10;18.35;;;10.70;99.90;;;;;;5046902;28;21733;-54
2021/10/18 08:48:54;;;;;;;38.58;21.50;;;10.90;99.90;;;;;;5043635;28;20492;-56
2021/10/18 08:51:20;;;;;;;42.28;24.17;;;11.10;99.90;;;;;;5039887;28;20445;-53
2021/10/18 08:53:46;;;;;;;34.58;17.30;;;11.30;99.90;;;;;;5045592;28;20401;-58
2021/10/18 08:56:12;;;;;;;33.27;17.90;;;11.20;99.90;;;;;;5040880;28;20488;-56
2021/10/18 08:58:38;;;;;;;33.03;18.95;;;11.30;99.90;;;;;;5047171;28;20492;-53
2021/10/18 09:01:04;;;;;;;36.67;20.02;;;11.10;99.90;;;;;;5042525;28;20489;-56
2021/10/18 09:03:32;;;;;;;33.80;17.23;;;11.00;99.90;;;;;;5036283;28;20437;-53
2021/10/18 09:06:10;;;;;;;35.20;17.83;;;11.00;99.90;;;;;;5049067;28;20467;-53
2021/10/18 09:08:40;;;;;;;34.85;18.75;;;11.20;99.90;;;;;;5049564;28;20930;-54
2021/10/18 09:11:10;;;;;;;65.03;43.17;;;11.20;99.90;;;;;;5050504;28;20408;-53
2021/10/18 09:13:41;;;;;;;34.50;20.50;;;11.10;99.90;;;;;;5049784;28;20404;-56
2021/10/18 09:16:09;;;;;;;36.95;20.40;;;11.00;99.90;;;;;;5050358;28;21061;-53
2021/10/18 09:18:35;;;;;;;34.65;19.42;;;11.10;99.90;;;;;;5050905;28;20389;-53
2021/10/18 09:21:01;;;;;;;36.70;19.30;;;11.20;99.90;;;;;;5050162;28;20389;-53
2021/10/18 09:23:36;;;;;;;37.70;19.75;;;11.20;99.90;;;;;;5050805;28;20373;-53
2021/10/18 09:26:13;;;;;;;31.63;17.53;;;11.40;99.90;;;;;;5049053;28;20444;-53
2021/10/18 09:28:39;;;;;;;41.33;23.10;;;11.30;99.90;;;;;;5049680;28;20465;-53
2021/10/18 09:31:14;;;;;;;28.90;16.65;;;11.30;99.90;;;;;;5050081;28;20444;-52
2021/10/18 09:33:42;;;;;;;31.02;17.17;;;11.30;99.90;;;;;;5050546;28;20382;-53
2021/10/18 09:36:14;;;;;;;34.05;18.83;;;11.30;99.90;;;;;;5050024;28;20403;-53
2021/10/18 09:38:40;;;;;;;32.40;18.10;;;11.30;99.90;;;;;;5050843;28;20459;-53
2021/10/18 09:41:06;;;;;;;34.80;19.88;;;11.30;99.90;;;;;;5049698;28;20889;-53
2021/10/18 09:43:45;;;;;;;32.53;17.80;;;11.10;99.90;;;;;;5050841;28;20382;-53
2021/10/18 10:51:14;;;;;;;32.30;20.52;;;12.90;99.90;;;;;;5048704;28;20400;-51
2021/10/18 10:53:46;;;;;;;32.88;19.30;;;12.90;99.90;;;;;;5049757;28;21239;-51
2021/10/18 10:56:32;;;;;;;35.20;20.50;;;13.20;99.90;;;;;;5048477;28;21003;-51
2021/10/18 10:59:24;;;;;;;35.13;20.67;;;13.20;99.90;;;;;;5048867;28;20422;-50
2021/10/18 11:01:59;;;;;;;30.40;17.90;;;13.70;99.90;;;;;;5048852;28;20379;-51
2021/10/18 11:04:34;;;;;;;31.27;17.85;;;13.70;99.90;;;;;;5050055;28;20510;-51
2021/10/18 11:07:14;;;;;;;32.75;17.73;;;13.40;99.90;;;;;;5047998;28;20934;-51
2021/10/18 11:09:45;;;;;;;32.05;19.08;;;13.10;99.90;;;;;;5049656;28;20409;-51
2021/10/18 11:12:17;;;;;;;32.80;18.83;;;13.10;99.90;;;;;;5049132;28;20466;-52
2021/10/18 11:15:10;;;;;;;28.77;17.40;;;13.50;99.90;;;;;;5049350;28;20610;-51
2021/10/18 11:17:38;;;;;;;29.73;17.38;;;13.70;99.90;;;;;;5046468;28;20744;-54
2021/10/18 11:20:10;;;;;;;29.42;17.52;;;14.40;99.90;;;;;;5048351;28;20403;-51
2021/10/18 11:22:42;;;;;;;31.23;18.38;;;14.70;99.90;;;;;;5048934;28;20373;-53
2021/10/18 11:25:16;;;;;;;31.25;19.15;;;15.00;99.90;;;;;;5047739;28;20436;-51
2021/10/18 11:27:44;;;;;;;31.33;18.10;;;14.70;99.90;;;;;;5048997;28;20395;-51
2021/10/18 11:30:13;;;;;;;30.10;18.98;;;14.60;99.90;;;;;;5059816;28;20380;-52
2021/10/18 11:32:39;;;;;;;30.30;17.77;;;14.50;99.90;;;;;;5068754;28;20380;-51
2021/10/18 11:35:18;;;;;;;30.35;18.23;;;14.30;99.90;;;;;;5067838;28;20407;-52
2021/10/18 11:37:56;;;;;;;29.50;17.77;;;14.40;99.90;;;;;;5054835;28;20842;-52
2021/10/18 11:40:33;;;;;;;30.67;18.70;;;14.50;99.90;;;;;;5066969;28;20402;-52
2021/10/18 11:43:06;;;;;;;29.58;18.95;;;14.90;99.90;;;;;;5062409;28;20387;-52
2021/10/18 11:45:38;;;;;;;44.40;25.80;;;15.30;99.90;;;;;;5068605;28;20430;-52
2021/10/18 11:48:15;;;;;;;27.77;17.35;;;15.40;99.90;;;;;;5068105;28;20379;-54
2021/10/18 11:50:43;;;;;;;33.95;20.98;;;15.50;99.90;;;;;;5060876;28;20439;-54
2021/10/18 11:53:53;;;;;;;30.95;18.60;;;15.60;99.90;;;;;;5066615;28;20437;-51
2021/10/18 11:56:19;;;;;;;32.47;19.63;;;15.20;99.90;;;;;;5065572;28;20493;-52
2021/10/18 11:58:45;;;;;;;38.13;19.02;;;15.10;99.90;;;;;;5064719;28;20463;-51
2021/10/18 12:01:14;;;;;;;29.45;18.63;;;15.10;99.90;;;;;;5053904;28;20587;-52
2021/10/18 12:03:40;;;;;;;30.65;18.80;;;15.20;99.90;;;;;;5045975;28;20387;-53
2021/10/18 12:06:08;;;;;;;32.00;19.05;;;15.20;99.90;;;;;;5041917;28;20469;-52
2021/10/18 12:08:36;;;;;;;29.90;18.33;;;15.20;99.90;;;;;;5039783;28;20413;-52
2021/10/18 12:11:04;;;;;;;28.95;18.65;;;15.40;99.90;;;;;;5047254;28;20393;-52
2021/10/18 12:13:31;;;;;;;30.00;18.20;;;15.20;99.90;;;;;;5048134;28;20397;-51
2021/10/18 12:16:03;;;;;;;33.70;19.40;;;15.30;99.90;;;;;;5046900;28;20386;-53
2021/10/18 12:18:38;;;;;;;28.80;18.03;;;15.50;99.90;;;;;;5028059;28;20509;-53
2021/10/18 12:21:13;;;;;;;28.98;17.13;;;15.50;99.90;;;;;;5044980;28;20401;-55
2021/10/18 12:24:00;;;;;;;29.70;17.60;;;15.60;99.90;;;;;;5048397;28;20377;-54
2021/10/18 12:26:42;;;;;;;27.50;16.80;;;15.60;99.90;;;;;;5046163;28;20413;-53
2021/10/18 12:29:10;;;;;;;26.70;16.75;;;15.60;99.90;;;;;;5046943;28;20431;-52
2021/10/18 12:31:37;;;;;;;26.38;16.23;;;15.70;99.90;;;;;;5047755;28;20389;-52
2021/10/18 12:34:15;;;;;;;26.90;16.70;;;15.80;99.90;;;;;;5047418;28;20439;-52
2021/10/18 12:37:08;;;;;;;29.10;17.77;;;16.00;99.90;;;;;;5048223;28;20405;-53
2021/10/18 12:39:53;;;;;;;29.45;16.25;;;16.10;99.90;;;;;;5048451;28;20455;-53
2021/10/18 12:42:25;;;;;;;29.10;17.73;;;16.30;99.90;;;;;;5049098;28;20377;-52
2021/10/18 12:45:05;;;;;;;27.77;17.08;;;16.40;99.90;;;;;;5051763;28;20385;-53
2021/10/18 12:47:31;;;;;;;30.73;17.08;;;16.40;99.90;;;;;;5050877;28;20486;-52
2021/10/18 12:50:11;;;;;;;29.10;17.20;;;16.40;99.90;;;;;;5048885;28;20385;-57
2021/10/18 12:52:42;;;;;;;30.33;18.25;;;16.20;99.90;;;;;;5051025;28;20381;-52
2021/10/18 12:55:38;;;;;;;26.95;16.90;;;16.30;99.90;;;;;;5049917;28;20389;-54
2021/10/18 12:58:06;;;;;;;28.00;16.93;;;16.40;99.90;;;;;;5049710;28;20389;-54
2021/10/18 13:00:37;;;;;;;24.75;15.90;;;16.60;99.90;;;;;;5049639;28;20462;-53
2021/10/18 13:03:09;;;;;;;27.98;16.55;;;16.60;99.90;;;;;;5049989;28;20385;-53
2021/10/18 13:05:47;;;;;;;31.23;16.63;;;16.40;99.90;;;;;;5050889;28;20417;-53
2021/10/18 13:08:21;;;;;;;25.30;16.60;;;16.40;99.90;;;;;;5048689;28;20432;-53
2021/10/18 13:10:50;;;;;;;30.65;16.58;;;16.30;99.90;;;;;;5048782;28;20406;-54
2021/10/18 13:13:18;;;;;;;35.87;20.67;;;16.30;99.90;;;;;;5049322;28;20386;-53
2021/10/18 13:15:45;;;;;;;33.13;18.55;;;16.40;99.90;;;;;;5051558;28;20492;-53
2021/10/18 13:18:13;;;;;;;45.13;22.77;;;16.20;99.90;;;;;;5049794;28;20389;-53
2021/10/18 13:20:39;;;;;;;27.65;18.05;;;16.30;99.90;;;;;;5050608;28;20393;-53
2021/10/18 13:23:07;;;;;;;28.00;15.90;;;16.40;99.90;;;;;;5049384;28;20472;-53
2021/10/18 13:25:36;;;;;;;25.70;16.65;;;16.50;99.90;;;;;;5050684;28;21071;-53
2021/10/18 13:28:04;;;;;;;27.25;16.65;;;16.40;99.90;;;;;;5050053;28;20393;-54
2021/10/18 13:30:30;;;;;;;25.55;16.27;;;16.50;99.90;;;;;;5049384;28;20408;-53
2021/10/18 13:32:57;;;;;;;23.58;15.27;;;16.60;99.90;;;;;;5049901;28;20475;-58
2021/10/18 13:35:24;;;;;;;27.70;16.40;;;16.20;99.90;;;;;;5046617;28;20385;-54
2021/10/18 13:37:50;;;;;;;27.38;16.17;;;16.00;99.90;;;;;;5042205;28;20412;-54
2021/10/18 13:40:21;;;;;;;26.70;16.50;;;16.10;99.90;;;;;;5043345;28;20883;-54
2021/10/18 13:42:47;;;;;;;26.40;16.63;;;16.20;99.90;;;;;;5050144;28;20381;-54
2021/10/18 13:45:16;;;;;;;25.38;15.57;;;16.30;99.90;;;;;;5049979;28;20388;-53